createdAt,value
2023-08-17T00:01:36.447Z,4.70
2023-08-17T00:04:03.467Z,5.10
2023-08-17T00:06:30.291Z,4.70
2023-08-17T00:08:57.211Z,5.30
2023-08-17T00:11:24.041Z,5.03
2023-08-17T00:13:50.767Z,5.07
2023-08-17T00:16:18.025Z,5.10
2023-08-17T00:18:45.165Z,5.70
2023-08-17T00:21:12.022Z,5.17
2023-08-17T00:23:39.330Z,5.17
2023-08-17T00:26:06.149Z,5.10
2023-08-17T00:28:33.417Z,5.47
2023-08-17T00:31:01.664Z,5.83
2023-08-17T00:33:28.990Z,5.07
2023-08-17T00:35:55.816Z,5.47
2023-08-17T00:38:22.775Z,5.43
2023-08-17T00:40:49.566Z,6.10
2023-08-17T00:43:16.313Z,5.23
2023-08-17T00:45:44.576Z,5.30
2023-08-17T00:48:12.545Z,5.10
2023-08-17T00:50:40.426Z,4.67
2023-08-17T00:53:07.596Z,4.87
2023-08-17T00:55:35.061Z,4.87
2023-08-17T00:58:02.326Z,5.60
2023-08-17T01:00:29.531Z,4.90
2023-08-17T01:02:57.011Z,4.97
2023-08-17T01:05:25.259Z,5.00
2023-08-17T01:07:52.139Z,5.00
2023-08-17T01:10:19.535Z,4.53
2023-08-17T01:13:06.570Z,4.80
2023-08-17T01:15:41.782Z,5.37
2023-08-17T01:18:32.492Z,4.90
2023-08-17T01:20:59.800Z,5.27
2023-08-17T01:23:26.529Z,5.20
2023-08-17T01:25:54.749Z,4.47
2023-08-17T01:28:21.705Z,5.57
2023-08-17T01:30:56.771Z,5.80
2023-08-17T01:33:36.140Z,4.53
2023-08-17T01:36:05.431Z,4.73
2023-08-17T01:38:35.247Z,5.20
2023-08-17T01:41:03.534Z,5.27
2023-08-17T01:43:31.197Z,5.60
2023-08-17T01:45:57.988Z,4.93
2023-08-17T01:48:24.914Z,5.87
2023-08-17T01:50:51.676Z,5.20
2023-08-17T01:53:18.501Z,4.53
2023-08-17T01:55:45.278Z,5.57
2023-08-17T01:58:12.043Z,5.60
2023-08-17T02:00:38.890Z,4.90
2023-08-17T02:03:05.830Z,6.37
2023-08-17T02:05:32.831Z,5.13
2023-08-17T02:07:59.627Z,5.40
2023-08-17T02:10:26.409Z,5.50
2023-08-17T02:12:58.868Z,5.60
2023-08-17T02:15:28.821Z,4.60
2023-08-17T02:17:55.793Z,5.20
2023-08-17T02:20:22.570Z,5.33
2023-08-17T02:22:49.308Z,5.33
2023-08-17T02:25:16.170Z,5.07
2023-08-17T02:27:42.956Z,5.07
2023-08-17T02:30:10.258Z,5.50
2023-08-17T02:32:37.195Z,5.17
2023-08-17T02:35:04.086Z,5.03
2023-08-17T02:37:30.973Z,5.00
2023-08-17T02:39:58.300Z,5.63
2023-08-17T02:42:25.090Z,5.40
2023-08-17T02:44:51.878Z,5.50
2023-08-17T02:47:18.616Z,5.10
2023-08-17T02:49:45.344Z,5.43
2023-08-17T02:52:12.167Z,4.90
2023-08-17T02:54:38.984Z,4.70
2023-08-17T02:57:05.787Z,5.00
2023-08-17T02:59:32.577Z,5.40
2023-08-17T03:01:59.420Z,5.30
2023-08-17T03:04:26.245Z,5.20
2023-08-17T03:06:53.022Z,5.20
2023-08-17T03:09:19.777Z,5.10
2023-08-17T03:11:46.583Z,5.03
2023-08-17T03:14:13.566Z,5.00
2023-08-17T03:16:40.446Z,4.90
2023-08-17T03:19:08.853Z,5.00
2023-08-17T03:21:35.842Z,5.23
2023-08-17T03:24:02.623Z,4.93
2023-08-17T03:26:29.419Z,5.00
2023-08-17T03:28:56.275Z,5.23
2023-08-17T03:31:23.368Z,5.70
2023-08-17T03:33:50.518Z,5.20
2023-08-17T03:36:17.356Z,5.23
2023-08-17T03:38:44.088Z,5.27
2023-08-17T03:41:11.994Z,5.73
2023-08-17T03:43:38.783Z,5.77
2023-08-17T03:46:06.792Z,5.67
2023-08-17T03:48:33.665Z,5.10
2023-08-17T03:51:02.440Z,4.90
2023-08-17T03:53:29.220Z,5.23
2023-08-17T03:55:56.001Z,5.20
2023-08-17T03:58:22.872Z,5.10
2023-08-17T04:00:53.293Z,5.97
2023-08-17T04:03:20.916Z,5.27
2023-08-17T04:05:47.685Z,5.17
2023-08-17T04:08:14.705Z,5.40
2023-08-17T04:10:41.460Z,5.13
2023-08-17T04:13:08.521Z,5.50
2023-08-17T04:15:35.335Z,5.83
2023-08-17T04:18:02.140Z,4.80
2023-08-17T04:20:28.936Z,5.70
2023-08-17T04:22:55.754Z,5.20
2023-08-17T04:25:22.545Z,5.93
2023-08-17T04:27:49.321Z,5.50
2023-08-17T04:30:16.083Z,5.53
2023-08-17T04:32:42.898Z,6.10
2023-08-17T04:35:11.073Z,5.17
2023-08-17T04:37:37.888Z,5.27
2023-08-17T04:40:06.390Z,6.10
2023-08-17T04:42:33.178Z,5.37
2023-08-17T04:44:59.924Z,4.73
2023-08-17T04:47:27.132Z,4.80
2023-08-17T04:49:54.149Z,5.10
2023-08-17T04:52:20.881Z,4.80
2023-08-17T04:54:47.668Z,5.70
2023-08-17T04:57:14.591Z,5.67
2023-08-17T04:59:41.805Z,5.30
2023-08-17T05:02:08.578Z,6.40
2023-08-17T05:04:36.583Z,5.60
2023-08-17T05:07:03.406Z,5.93
2023-08-17T05:09:30.212Z,5.07
2023-08-17T05:11:57.038Z,5.80
2023-08-17T05:14:23.872Z,5.43
2023-08-17T05:16:50.614Z,5.93
2023-08-17T05:19:17.405Z,5.53
2023-08-17T05:21:44.166Z,5.00
2023-08-17T05:24:11.022Z,5.57
2023-08-17T05:26:37.951Z,5.63
2023-08-17T05:29:04.827Z,5.70
2023-08-17T05:31:31.668Z,5.33
2023-08-17T05:33:58.508Z,6.40
2023-08-17T05:36:25.283Z,7.03
2023-08-17T05:38:52.083Z,5.93
2023-08-17T05:41:18.873Z,6.67
2023-08-17T05:43:45.717Z,6.17
2023-08-17T05:46:12.566Z,6.73
2023-08-17T05:48:39.344Z,6.30
2023-08-17T05:51:06.288Z,6.53
2023-08-17T05:53:33.127Z,7.00
2023-08-17T05:56:00.011Z,6.37
2023-08-17T05:58:26.808Z,5.80
2023-08-17T06:00:53.641Z,6.00
2023-08-17T06:03:20.496Z,6.30
2023-08-17T06:05:47.261Z,5.93
2023-08-17T06:08:13.981Z,5.33
2023-08-17T06:10:40.795Z,5.43
2023-08-17T06:13:07.557Z,5.27
2023-08-17T06:15:34.344Z,6.03
2023-08-17T06:18:01.172Z,6.60
2023-08-17T06:20:27.997Z,6.43
2023-08-17T06:22:54.789Z,6.17
2023-08-17T06:25:21.610Z,6.30
2023-08-17T06:27:50.471Z,5.57
2023-08-17T06:30:17.287Z,5.70
2023-08-17T06:32:44.314Z,6.33
2023-08-17T06:35:11.317Z,6.13
2023-08-17T06:37:38.167Z,6.80
2023-08-17T06:40:06.480Z,6.13
2023-08-17T06:42:33.503Z,6.40
2023-08-17T06:45:00.260Z,6.80
2023-08-17T06:47:27.427Z,7.03
2023-08-17T06:49:55.546Z,7.13
2023-08-17T06:52:22.337Z,7.53
2023-08-17T06:54:49.128Z,7.13
2023-08-17T06:57:15.886Z,7.90
2023-08-17T06:59:43.101Z,8.20
2023-08-17T07:02:10.274Z,8.10
2023-08-17T07:04:37.007Z,8.10
2023-08-17T07:07:03.911Z,7.00
2023-08-17T07:09:30.704Z,6.90
2023-08-17T07:11:57.535Z,6.70
2023-08-17T07:14:24.394Z,7.33
2023-08-17T07:16:51.160Z,7.83
2023-08-17T07:19:18.067Z,6.90
2023-08-17T07:21:44.843Z,7.20
2023-08-17T07:24:16.173Z,7.50
2023-08-17T07:26:43.261Z,7.97
2023-08-17T07:29:10.012Z,6.67
2023-08-17T07:31:38.633Z,7.13
2023-08-17T07:34:08.460Z,9.13
2023-08-17T07:36:35.477Z,8.27
2023-08-17T07:39:02.423Z,7.80
2023-08-17T07:41:29.235Z,7.50
2023-08-17T07:43:56.034Z,7.77
2023-08-17T07:46:22.906Z,7.90
2023-08-17T07:48:50.012Z,7.50
2023-08-17T07:51:17.013Z,8.60
2023-08-17T07:53:44.106Z,7.77
2023-08-17T07:56:11.044Z,8.43
2023-08-17T07:58:37.848Z,8.70
2023-08-17T08:01:05.543Z,6.87
2023-08-17T08:03:32.440Z,8.00
2023-08-17T08:05:59.234Z,8.10
2023-08-17T08:08:26.005Z,7.23
2023-08-17T08:10:55.111Z,7.50
2023-08-17T08:13:22.034Z,6.83
2023-08-17T08:15:48.910Z,6.90
2023-08-17T08:18:15.778Z,8.37
2023-08-17T08:20:42.815Z,7.60
2023-08-17T08:23:09.567Z,6.73
2023-08-17T08:25:36.371Z,6.90
2023-08-17T08:28:03.333Z,7.33
2023-08-17T08:30:30.138Z,6.57
2023-08-17T08:32:59.099Z,6.03
2023-08-17T08:35:25.931Z,7.30
2023-08-17T08:37:52.835Z,8.47
2023-08-17T08:40:22.302Z,8.17
2023-08-17T08:42:49.054Z,7.63
2023-08-17T08:45:15.965Z,7.27
2023-08-17T08:47:45.592Z,8.13
2023-08-17T08:50:19.047Z,7.40
2023-08-17T08:53:01.683Z,8.47
2023-08-17T08:55:34.323Z,6.97
2023-08-17T08:58:01.587Z,7.43
2023-08-17T09:00:29.062Z,7.03
2023-08-17T09:02:56.758Z,7.13
2023-08-17T09:05:24.140Z,7.50
2023-08-17T09:07:51.690Z,7.20
2023-08-17T09:10:18.684Z,7.70
2023-08-17T09:12:49.004Z,6.80
2023-08-17T09:15:16.750Z,7.00
2023-08-17T09:17:44.193Z,7.23
2023-08-17T09:20:11.910Z,7.23
2023-08-17T09:22:41.566Z,7.47
2023-08-17T09:25:09.654Z,6.40
2023-08-17T09:27:38.077Z,6.67
2023-08-17T09:30:10.040Z,7.20
2023-08-17T09:32:36.941Z,6.77
2023-08-17T09:35:07.546Z,7.33
2023-08-17T09:37:34.855Z,6.37
2023-08-17T09:40:02.273Z,7.03
2023-08-17T09:42:29.270Z,7.40
2023-08-17T09:44:58.884Z,7.27
2023-08-17T09:47:25.884Z,7.20
2023-08-17T09:49:56.251Z,6.87
2023-08-17T09:52:25.256Z,6.83
2023-08-17T09:54:55.627Z,7.63
2023-08-17T09:57:23.533Z,7.50
2023-08-17T09:59:54.785Z,7.37
2023-08-17T10:02:27.748Z,7.57
2023-08-17T10:04:57.584Z,7.53
2023-08-17T10:07:33.551Z,6.87
2023-08-17T10:10:06.140Z,6.97
2023-08-17T10:12:46.179Z,6.10
2023-08-17T10:15:19.489Z,7.50
2023-08-17T10:18:15.540Z,7.20
2023-08-17T10:21:00.942Z,7.30
2023-08-17T10:23:28.807Z,7.30
2023-08-17T10:25:56.313Z,6.47
2023-08-17T10:28:23.346Z,7.00
2023-08-17T10:30:50.369Z,6.87
2023-08-17T10:33:17.816Z,6.87
2023-08-17T10:35:45.599Z,7.23
2023-08-17T10:38:13.107Z,7.20
2023-08-17T10:40:42.147Z,6.10
2023-08-17T10:43:09.282Z,6.13
2023-08-17T10:45:39.648Z,6.40
2023-08-17T10:48:09.827Z,5.90
2023-08-17T10:50:43.015Z,5.37
2023-08-17T10:53:14.066Z,5.97
2023-08-17T10:55:42.796Z,6.37
2023-08-17T10:58:15.175Z,5.30
2023-08-17T11:00:46.156Z,5.90
2023-08-17T11:03:21.841Z,5.43
2023-08-17T11:05:54.943Z,5.90
2023-08-17T11:08:43.390Z,6.07
2023-08-17T11:11:15.020Z,4.93
2023-08-17T11:13:46.095Z,5.40
2023-08-17T11:16:18.026Z,5.60
2023-08-17T11:18:46.167Z,5.63
2023-08-17T11:21:19.476Z,5.50
2023-08-17T11:23:47.426Z,5.13
2023-08-17T11:26:17.994Z,4.50
2023-08-17T11:28:46.055Z,5.13
2023-08-17T11:31:15.810Z,5.17
2023-08-17T11:33:42.958Z,4.63
2023-08-17T11:36:11.088Z,4.60
2023-08-17T11:38:43.788Z,4.97
2023-08-17T11:43:45.515Z,4.80
2023-08-17T11:46:13.358Z,5.63
2023-08-17T11:48:40.397Z,5.17
2023-08-17T11:51:07.185Z,4.63
2023-08-17T11:53:39.888Z,4.50
2023-08-17T11:56:10.076Z,4.80
2023-08-17T11:58:57.948Z,4.33
2023-08-17T12:01:25.326Z,4.77
2023-08-17T12:03:52.287Z,4.93
2023-08-17T12:06:19.162Z,4.33
2023-08-17T12:08:49.547Z,4.97
2023-08-17T12:11:20.122Z,4.57
2023-08-17T12:13:52.296Z,4.23
2023-08-17T12:16:20.969Z,4.60
2023-08-17T12:18:54.790Z,4.80
2023-08-17T12:21:25.403Z,5.10
2023-08-17T12:23:52.804Z,5.07
2023-08-17T12:26:21.048Z,4.87
2023-08-17T12:28:48.112Z,4.73
2023-08-17T12:31:14.968Z,5.07
2023-08-17T12:33:41.797Z,5.30
2023-08-17T12:36:09.439Z,5.07
2023-08-17T12:38:36.280Z,4.40
2023-08-17T12:41:06.869Z,5.47
2023-08-17T12:43:34.166Z,4.90
2023-08-17T12:46:01.016Z,4.17
2023-08-17T12:48:27.872Z,4.93
2023-08-17T12:50:54.730Z,4.90
2023-08-17T12:53:21.561Z,4.87
2023-08-17T12:55:48.396Z,5.07
2023-08-17T12:58:15.273Z,4.50
2023-08-17T13:00:42.048Z,4.70
2023-08-17T13:03:10.081Z,4.97
2023-08-17T13:05:37.834Z,5.20
2023-08-17T13:08:04.959Z,4.90
2023-08-17T13:10:31.864Z,4.73
2023-08-17T13:13:00.435Z,4.17
2023-08-17T13:15:27.791Z,4.23
2023-08-17T13:17:54.663Z,4.20
2023-08-17T13:20:21.884Z,4.80
2023-08-17T13:22:48.856Z,4.90
2023-08-17T13:25:15.622Z,4.37
2023-08-17T13:27:42.421Z,4.80
2023-08-17T13:30:09.920Z,4.60
2023-08-17T13:32:37.313Z,5.47
2023-08-17T13:35:05.033Z,6.17
2023-08-17T13:37:32.216Z,5.90
2023-08-17T13:39:59.784Z,6.43
2023-08-17T13:42:26.834Z,5.53
2023-08-17T13:44:53.903Z,6.07
2023-08-17T13:47:20.860Z,7.00
2023-08-17T13:49:47.582Z,6.37
2023-08-17T13:52:14.504Z,6.03
2023-08-17T13:54:41.627Z,5.93
2023-08-17T13:57:08.536Z,4.83
2023-08-17T13:59:35.406Z,4.80
2023-08-17T14:02:02.256Z,5.10
2023-08-17T14:04:29.106Z,5.73
2023-08-17T14:06:55.892Z,5.43
2023-08-17T14:09:22.712Z,6.50
2023-08-17T14:11:49.558Z,7.63
2023-08-17T14:14:16.409Z,7.03
2023-08-17T14:16:43.835Z,7.33
2023-08-17T14:19:11.048Z,9.03
2023-08-17T14:21:37.863Z,8.60
2023-08-17T14:24:05.319Z,7.50
2023-08-17T14:26:33.053Z,7.30
2023-08-17T14:29:00.042Z,7.67
2023-08-17T14:31:26.781Z,7.60
2023-08-17T14:33:53.560Z,7.43
2023-08-17T14:36:21.056Z,7.47
2023-08-17T14:38:48.401Z,6.33
2023-08-17T14:41:15.212Z,6.73
2023-08-17T14:43:42.076Z,7.67
2023-08-17T14:48:41.014Z,7.07
2023-08-17T14:51:07.922Z,7.47
2023-08-17T14:53:39.289Z,8.23
2023-08-17T14:56:09.327Z,7.60
2023-08-17T14:58:36.291Z,8.93
2023-08-17T15:01:04.202Z,7.90
2023-08-17T15:03:31.106Z,6.43
2023-08-17T15:05:58.027Z,7.80
2023-08-17T15:08:24.795Z,8.00
2023-08-17T15:10:51.963Z,7.53
2023-08-17T15:13:19.510Z,8.60
2023-08-17T15:15:46.585Z,8.10
2023-08-17T15:18:13.554Z,8.50
2023-08-17T15:20:40.406Z,8.17
2023-08-17T15:23:07.186Z,9.07
2023-08-17T15:25:34.006Z,8.30
2023-08-17T15:28:00.927Z,7.40
2023-08-17T15:30:27.782Z,7.67
2023-08-17T15:32:54.591Z,8.67
2023-08-17T15:35:21.509Z,8.70
2023-08-17T15:37:48.340Z,9.60
2023-08-17T15:40:15.287Z,9.73
2023-08-17T15:42:42.409Z,7.93
2023-08-17T15:45:09.599Z,8.00
2023-08-17T15:47:36.496Z,8.90
2023-08-17T15:50:03.524Z,8.83
2023-08-17T15:52:30.322Z,9.00
2023-08-17T15:54:57.165Z,8.67
2023-08-17T15:57:23.979Z,7.70
2023-08-17T15:59:51.470Z,9.03
2023-08-17T16:02:18.693Z,9.17
2023-08-17T16:04:45.644Z,10.43
2023-08-17T16:07:12.448Z,9.80
2023-08-17T16:09:39.820Z,10.20
2023-08-17T16:12:07.330Z,9.23
2023-08-17T16:14:34.673Z,8.70
2023-08-17T16:17:01.581Z,9.00
2023-08-17T16:19:28.395Z,8.93
2023-08-17T16:21:55.147Z,8.77
2023-08-17T16:24:26.496Z,10.13
2023-08-17T16:26:54.314Z,9.50
2023-08-17T16:29:21.175Z,10.70
2023-08-17T16:32:01.779Z,9.57
2023-08-17T16:34:31.091Z,9.37
2023-08-17T16:36:58.208Z,43.03
2023-08-17T16:39:25.461Z,11.60
2023-08-17T16:41:52.573Z,10.93
2023-08-17T16:44:20.712Z,10.60
2023-08-17T16:46:48.230Z,11.17
2023-08-17T16:49:15.011Z,11.33
2023-08-17T16:51:41.915Z,9.80
2023-08-17T16:54:08.709Z,10.80
2023-08-17T16:56:35.533Z,10.33
2023-08-17T16:59:02.733Z,10.00
2023-08-17T17:01:29.814Z,10.30
2023-08-17T17:03:56.748Z,10.07
2023-08-17T17:06:23.618Z,10.37
2023-08-17T17:08:50.426Z,10.90
2023-08-17T17:11:17.320Z,10.93
2023-08-17T17:13:44.151Z,12.30
2023-08-17T17:16:11.073Z,10.40
2023-08-17T17:18:38.131Z,9.53
2023-08-17T17:21:07.673Z,11.27
2023-08-17T17:23:34.487Z,11.97
2023-08-17T17:26:08.457Z,11.40
2023-08-17T17:28:35.857Z,11.67
2023-08-17T17:31:06.283Z,12.40
2023-08-17T17:33:33.431Z,11.37
2023-08-17T17:36:00.400Z,11.47
2023-08-17T17:38:27.260Z,11.73
2023-08-17T17:40:54.220Z,11.27
2023-08-17T17:43:21.132Z,10.90
2023-08-17T17:45:48.923Z,9.73
2023-08-17T17:48:15.772Z,11.40
2023-08-17T17:50:42.809Z,10.13
2023-08-17T17:53:10.981Z,9.37
2023-08-17T17:55:38.118Z,9.37
2023-08-17T17:58:07.044Z,9.53
2023-08-17T18:00:34.449Z,10.70
2023-08-17T18:03:13.824Z,10.20
2023-08-17T18:05:42.692Z,9.00
2023-08-17T18:08:09.905Z,10.60
2023-08-17T18:10:44.157Z,9.53
2023-08-17T18:13:11.415Z,10.30
2023-08-17T18:15:39.531Z,10.47
2023-08-17T18:18:07.083Z,10.70
2023-08-17T18:20:34.184Z,11.50
2023-08-17T18:23:01.060Z,10.77
2023-08-17T18:25:30.508Z,9.47
2023-08-17T18:27:57.397Z,9.37
2023-08-17T18:30:24.322Z,9.13
2023-08-17T18:32:51.282Z,8.53
2023-08-17T18:35:20.087Z,9.20
2023-08-17T18:37:48.483Z,8.73
2023-08-17T18:40:15.364Z,7.73
2023-08-17T18:42:42.220Z,4.97
2023-08-17T18:45:09.437Z,6.17
2023-08-17T18:47:36.288Z,5.63
2023-08-17T18:50:03.148Z,5.20
2023-08-17T18:52:30.075Z,5.50
2023-08-17T18:55:04.104Z,4.90
2023-08-17T18:57:33.756Z,6.00
2023-08-17T19:00:02.702Z,6.43
2023-08-17T19:02:29.565Z,5.70
2023-08-17T19:04:59.220Z,5.43
2023-08-17T19:07:27.918Z,5.50
2023-08-17T19:09:55.200Z,5.13
2023-08-17T19:12:22.578Z,4.90
2023-08-17T19:14:49.360Z,5.00
2023-08-17T19:17:18.343Z,4.97
2023-08-17T19:19:45.282Z,5.40
2023-08-17T19:22:12.096Z,4.60
2023-08-17T19:24:39.958Z,5.47
2023-08-17T19:27:06.825Z,5.20
2023-08-17T19:29:33.729Z,5.30
2023-08-17T19:32:00.531Z,5.60
2023-08-17T19:34:27.310Z,5.00
2023-08-17T19:36:54.209Z,5.00
2023-08-17T19:39:21.049Z,4.60
2023-08-17T19:41:48.534Z,4.53
2023-08-17T19:44:15.817Z,5.00
2023-08-17T19:46:42.768Z,4.40
2023-08-17T19:49:10.100Z,4.60
2023-08-17T19:51:37.589Z,4.43
2023-08-17T19:54:04.957Z,4.43
2023-08-17T19:56:31.847Z,4.37
2023-08-17T19:58:58.756Z,4.97
2023-08-17T20:01:26.471Z,5.77
2023-08-17T20:03:54.940Z,4.90
2023-08-17T20:06:21.922Z,5.70
2023-08-17T20:08:48.746Z,4.63
2023-08-17T20:11:17.248Z,4.57
2023-08-17T20:13:44.173Z,4.13
2023-08-17T20:16:11.118Z,4.87
2023-08-17T20:18:38.235Z,4.30
2023-08-17T20:21:07.015Z,4.60
2023-08-17T20:23:34.229Z,5.50
2023-08-17T20:26:01.292Z,5.33
2023-08-17T20:28:28.471Z,5.40
2023-08-17T20:30:57.252Z,5.27
2023-08-17T20:33:24.226Z,5.10
2023-08-17T20:35:52.920Z,5.80
2023-08-17T20:38:21.405Z,5.03
2023-08-17T20:40:48.332Z,6.80
2023-08-17T20:43:15.426Z,6.70
2023-08-17T20:45:43.739Z,6.60
2023-08-17T20:48:11.479Z,6.80
2023-08-17T20:50:39.373Z,6.17
2023-08-17T20:53:07.189Z,7.83
2023-08-17T20:55:38.856Z,6.40
2023-08-17T20:58:06.031Z,6.60
2023-08-17T21:00:33.563Z,6.30
2023-08-17T21:03:00.497Z,6.63
2023-08-17T21:05:28.936Z,7.27
2023-08-17T21:07:56.605Z,6.50
2023-08-17T21:10:24.714Z,7.57
2023-08-17T21:12:51.887Z,7.30
2023-08-17T21:15:18.692Z,7.80
2023-08-17T21:17:46.445Z,7.10
2023-08-17T21:20:14.329Z,6.70
2023-08-17T21:22:50.754Z,7.30
2023-08-17T21:25:19.343Z,7.23
2023-08-17T21:27:46.252Z,7.20
2023-08-17T21:30:13.260Z,7.00
2023-08-17T21:32:40.285Z,7.50
2023-08-17T21:35:07.498Z,6.93
2023-08-17T21:37:34.355Z,8.00
2023-08-17T21:40:02.269Z,6.77
2023-08-17T21:42:29.070Z,6.80
2023-08-17T21:44:56.420Z,8.23
2023-08-17T21:47:23.244Z,7.33
2023-08-17T21:49:50.095Z,7.03
2023-08-17T21:52:16.978Z,6.47
2023-08-17T21:54:43.842Z,7.80
2023-08-17T21:57:10.680Z,7.13
2023-08-17T21:59:37.536Z,7.33
2023-08-17T22:02:05.318Z,7.40
2023-08-17T22:04:33.737Z,6.70
2023-08-17T22:07:03.381Z,7.77
2023-08-17T22:09:30.856Z,8.27
2023-08-17T22:11:57.682Z,6.20
2023-08-17T22:14:24.462Z,6.43
2023-08-17T22:16:51.357Z,6.53
2023-08-17T22:19:18.187Z,7.30
2023-08-17T22:21:45.054Z,6.40
2023-08-17T22:24:11.934Z,6.20
2023-08-17T22:26:38.750Z,6.80
2023-08-17T22:29:07.150Z,6.50
2023-08-17T22:31:34.652Z,6.90
2023-08-17T22:34:01.874Z,6.60
2023-08-17T22:36:28.690Z,6.07
2023-08-17T22:38:55.574Z,6.73
2023-08-17T22:41:22.368Z,6.47
2023-08-17T22:43:50.048Z,5.87
2023-08-17T22:46:16.946Z,6.33
2023-08-17T22:48:44.481Z,6.40
2023-08-17T22:51:14.532Z,6.63
2023-08-17T22:53:44.899Z,6.00
2023-08-17T22:56:11.824Z,7.00
2023-08-17T22:58:38.551Z,6.10
2023-08-17T23:01:05.919Z,7.43
2023-08-17T23:03:32.778Z,8.37
2023-08-17T23:06:02.075Z,7.27
2023-08-17T23:08:30.131Z,7.40
2023-08-17T23:11:03.205Z,8.10
2023-08-17T23:13:30.068Z,7.40
2023-08-17T23:15:57.037Z,8.77
2023-08-17T23:18:24.051Z,6.90
2023-08-17T23:20:50.854Z,6.77
2023-08-17T23:23:18.271Z,7.30
2023-08-17T23:25:45.588Z,7.60
2023-08-17T23:28:12.489Z,7.37
2023-08-17T23:30:40.402Z,6.60
2023-08-17T23:33:07.599Z,6.63
2023-08-17T23:35:34.938Z,7.40
2023-08-17T23:38:01.867Z,9.27
2023-08-17T23:40:28.797Z,9.40
2023-08-17T23:42:55.588Z,7.20
2023-08-17T23:45:22.530Z,8.93
2023-08-17T23:47:49.382Z,10.00
2023-08-17T23:50:16.227Z,8.83
2023-08-17T23:52:43.077Z,12.30
2023-08-17T23:55:09.963Z,12.03
2023-08-17T23:57:36.773Z,12.53
